sensor_id;sensor_type;location;lat;lon;timestamp;temperature;humidity
39847;DHT22;25517;52.422;10.782;2023-12-14T00:00:28;4.80;99.90
39847;DHT22;25517;52.422;10.782;2023-12-14T00:02:54;4.80;99.90
39847;DHT22;25517;52.422;10.782;2023-12-14T00:05:20;4.80;99.90
39847;DHT22;25517;52.422;10.782;2023-12-14T00:07:45;4.80;99.90
39847;DHT22;25517;52.422;10.782;2023-12-14T00:10:11;4.80;99.90
39847;DHT22;25517;52.422;10.782;2023-12-14T00:12:37;4.80;99.90
39847;DHT22;25517;52.422;10.782;2023-12-14T00:15:04;4.70;99.90
39847;DHT22;25517;52.422;10.782;2023-12-14T00:17:29;4.70;99.90
39847;DHT22;25517;52.422;10.782;2023-12-14T00:19:55;4.70;99.90
39847;DHT22;25517;52.422;10.782;2023-12-14T00:22:21;4.70;99.90
39847;DHT22;25517;52.422;10.782;2023-12-14T00:24:46;4.70;99.90
39847;DHT22;25517;52.422;10.782;2023-12-14T00:27:12;4.60;99.90
39847;DHT22;25517;52.422;10.782;2023-12-14T00:29:37;4.70;99.90
39847;DHT22;25517;52.422;10.782;2023-12-14T00:32:03;4.70;99.90
39847;DHT22;25517;52.422;10.782;2023-12-14T00:34:29;4.70;99.90
39847;DHT22;25517;52.422;10.782;2023-12-14T00:36:55;4.60;99.90
39847;DHT22;25517;52.422;10.782;2023-12-14T00:39:20;4.60;99.90
39847;DHT22;25517;52.422;10.782;2023-12-14T00:41:46;4.60;99.90
39847;DHT22;25517;52.422;10.782;2023-12-14T00:44:11;4.60;99.90
39847;DHT22;25517;52.422;10.782;2023-12-14T00:46:37;4.60;99.90
39847;DHT22;25517;52.422;10.782;2023-12-14T00:49:03;4.70;99.90
39847;DHT22;25517;52.422;10.782;2023-12-14T00:51:28;4.60;99.90
39847;DHT22;25517;52.422;10.782;2023-12-14T00:53:54;4.60;99.90
39847;DHT22;25517;52.422;10.782;2023-12-14T00:56:19;4.60;99.90
39847;DHT22;25517;52.422;10.782;2023-12-14T00:58:45;4.70;99.90
39847;DHT22;25517;52.422;10.782;2023-12-14T01:01:11;4.70;99.90
39847;DHT22;25517;52.422;10.782;2023-12-14T01:03:36;4.70;99.90
39847;DHT22;25517;52.422;10.782;2023-12-14T01:06:02;4.70;99.90
39847;DHT22;25517;52.422;10.782;2023-12-14T01:08:27;4.70;99.90
39847;DHT22;25517;52.422;10.782;2023-12-14T01:10:53;4.70;99.90
39847;DHT22;25517;52.422;10.782;2023-12-14T01:13:19;4.70;99.90
39847;DHT22;25517;52.422;10.782;2023-12-14T01:15:44;4.70;99.90
39847;DHT22;25517;52.422;10.782;2023-12-14T01:18:10;4.60;99.90
39847;DHT22;25517;52.422;10.782;2023-12-14T01:20:36;4.60;99.90
39847;DHT22;25517;52.422;10.782;2023-12-14T01:23:01;4.60;99.90
39847;DHT22;25517;52.422;10.782;2023-12-14T01:25:27;4.60;99.90
39847;DHT22;25517;52.422;10.782;2023-12-14T01:27:52;4.60;99.90
39847;DHT22;25517;52.422;10.782;2023-12-14T01:30:18;4.60;99.90
39847;DHT22;25517;52.422;10.782;2023-12-14T01:32:43;4.60;99.90
39847;DHT22;25517;52.422;10.782;2023-12-14T01:35:10;4.60;99.90
39847;DHT22;25517;52.422;10.782;2023-12-14T01:37:35;4.50;99.90
39847;DHT22;25517;52.422;10.782;2023-12-14T01:40:01;4.60;99.90
39847;DHT22;25517;52.422;10.782;2023-12-14T01:42:26;4.60;99.90
39847;DHT22;25517;52.422;10.782;2023-12-14T01:44:52;4.40;99.90
39847;DHT22;25517;52.422;10.782;2023-12-14T01:47:18;4.50;99.90
39847;DHT22;25517;52.422;10.782;2023-12-14T01:49:43;4.50;99.90
39847;DHT22;25517;52.422;10.782;2023-12-14T01:52:09;4.40;99.90
39847;DHT22;25517;52.422;10.782;2023-12-14T01:54:34;4.40;99.90
39847;DHT22;25517;52.422;10.782;2023-12-14T01:57:00;4.40;99.90
39847;DHT22;25517;52.422;10.782;2023-12-14T01:59:26;4.40;99.90
39847;DHT22;25517;52.422;10.782;2023-12-14T02:01:56;4.40;99.90
39847;DHT22;25517;52.422;10.782;2023-12-14T02:04:24;4.40;99.90
39847;DHT22;25517;52.422;10.782;2023-12-14T02:06:50;4.30;99.90
39847;DHT22;25517;52.422;10.782;2023-12-14T02:09:16;4.40;99.90
39847;DHT22;25517;52.422;10.782;2023-12-14T02:11:42;4.30;99.90
39847;DHT22;25517;52.422;10.782;2023-12-14T02:14:11;4.30;99.90
39847;DHT22;25517;52.422;10.782;2023-12-14T02:16:36;4.30;99.90
39847;DHT22;25517;52.422;10.782;2023-12-14T02:19:04;4.30;99.90
39847;DHT22;25517;52.422;10.782;2023-12-14T02:21:30;4.40;99.90
39847;DHT22;25517;52.422;10.782;2023-12-14T02:23:56;4.30;99.90
39847;DHT22;25517;52.422;10.782;2023-12-14T02:26:21;4.30;99.90
39847;DHT22;25517;52.422;10.782;2023-12-14T02:28:47;4.30;99.90
39847;DHT22;25517;52.422;10.782;2023-12-14T02:31:12;4.30;99.90
39847;DHT22;25517;52.422;10.782;2023-12-14T02:33:38;4.30;99.90
39847;DHT22;25517;52.422;10.782;2023-12-14T02:36:04;4.30;99.90
39847;DHT22;25517;52.422;10.782;2023-12-14T02:38:30;4.30;99.90
39847;DHT22;25517;52.422;10.782;2023-12-14T02:40:55;4.30;99.90
39847;DHT22;25517;52.422;10.782;2023-12-14T02:43:21;4.30;99.90
39847;DHT22;25517;52.422;10.782;2023-12-14T02:45:48;4.20;99.90
39847;DHT22;25517;52.422;10.782;2023-12-14T02:48:14;4.20;99.90
39847;DHT22;25517;52.422;10.782;2023-12-14T02:50:40;4.20;99.90
39847;DHT22;25517;52.422;10.782;2023-12-14T02:53:06;4.20;99.90
39847;DHT22;25517;52.422;10.782;2023-12-14T02:55:31;4.20;99.90
39847;DHT22;25517;52.422;10.782;2023-12-14T02:57:57;4.30;99.90
39847;DHT22;25517;52.422;10.782;2023-12-14T03:00:23;4.30;99.90
39847;DHT22;25517;52.422;10.782;2023-12-14T03:02:48;4.20;99.90
39847;DHT22;25517;52.422;10.782;2023-12-14T03:05:14;4.10;99.90
39847;DHT22;25517;52.422;10.782;2023-12-14T03:07:39;4.20;99.90
39847;DHT22;25517;52.422;10.782;2023-12-14T03:10:06;4.20;99.90
39847;DHT22;25517;52.422;10.782;2023-12-14T03:12:32;4.10;99.90
39847;DHT22;25517;52.422;10.782;2023-12-14T03:14:58;4.10;99.90
39847;DHT22;25517;52.422;10.782;2023-12-14T03:17:23;4.10;99.90
39847;DHT22;25517;52.422;10.782;2023-12-14T03:19:49;4.20;99.90
39847;DHT22;25517;52.422;10.782;2023-12-14T03:22:15;4.20;99.90
39847;DHT22;25517;52.422;10.782;2023-12-14T03:24:40;4.20;99.90
39847;DHT22;25517;52.422;10.782;2023-12-14T03:27:06;4.20;99.90
39847;DHT22;25517;52.422;10.782;2023-12-14T03:29:31;4.20;99.90
39847;DHT22;25517;52.422;10.782;2023-12-14T03:31:57;4.20;99.90
39847;DHT22;25517;52.422;10.782;2023-12-14T03:34:24;4.20;99.90
39847;DHT22;25517;52.422;10.782;2023-12-14T03:36:50;4.20;99.90
39847;DHT22;25517;52.422;10.782;2023-12-14T03:39:16;4.20;99.90
39847;DHT22;25517;52.422;10.782;2023-12-14T03:41:44;4.20;99.90
39847;DHT22;25517;52.422;10.782;2023-12-14T03:44:10;4.20;99.90
39847;DHT22;25517;52.422;10.782;2023-12-14T03:46:36;4.20;99.90
39847;DHT22;25517;52.422;10.782;2023-12-14T03:49:02;4.20;99.90
39847;DHT22;25517;52.422;10.782;2023-12-14T03:51:28;4.20;99.90
39847;DHT22;25517;52.422;10.782;2023-12-14T03:53:53;4.20;99.90
39847;DHT22;25517;52.422;10.782;2023-12-14T03:56:19;4.20;99.90
39847;DHT22;25517;52.422;10.782;2023-12-14T03:58:45;4.20;99.90
39847;DHT22;25517;52.422;10.782;2023-12-14T04:01:20;4.20;99.90
39847;DHT22;25517;52.422;10.782;2023-12-14T04:03:47;4.10;99.90
39847;DHT22;25517;52.422;10.782;2023-12-14T04:06:13;4.20;99.90
39847;DHT22;25517;52.422;10.782;2023-12-14T04:08:39;4.20;99.90
39847;DHT22;25517;52.422;10.782;2023-12-14T04:11:05;4.10;99.90
39847;DHT22;25517;52.422;10.782;2023-12-14T04:13:31;4.10;99.90
39847;DHT22;25517;52.422;10.782;2023-12-14T04:15:57;4.10;99.90
39847;DHT22;25517;52.422;10.782;2023-12-14T04:18:23;4.10;99.90
39847;DHT22;25517;52.422;10.782;2023-12-14T04:20:49;4.10;99.90
39847;DHT22;25517;52.422;10.782;2023-12-14T04:23:14;4.10;99.90
39847;DHT22;25517;52.422;10.782;2023-12-14T04:25:40;4.10;99.90
39847;DHT22;25517;52.422;10.782;2023-12-14T04:28:05;4.10;99.90
39847;DHT22;25517;52.422;10.782;2023-12-14T04:30:31;4.10;99.90
39847;DHT22;25517;52.422;10.782;2023-12-14T04:32:57;4.10;99.90
39847;DHT22;25517;52.422;10.782;2023-12-14T04:35:22;4.10;99.90
39847;DHT22;25517;52.422;10.782;2023-12-14T04:37:48;4.00;99.90
39847;DHT22;25517;52.422;10.782;2023-12-14T04:40:14;4.10;99.90
39847;DHT22;25517;52.422;10.782;2023-12-14T04:42:39;4.10;99.90
39847;DHT22;25517;52.422;10.782;2023-12-14T04:45:05;4.10;99.90
39847;DHT22;25517;52.422;10.782;2023-12-14T04:47:31;4.10;99.90
39847;DHT22;25517;52.422;10.782;2023-12-14T04:49:57;4.10;99.90
39847;DHT22;25517;52.422;10.782;2023-12-14T04:52:22;4.10;99.90
39847;DHT22;25517;52.422;10.782;2023-12-14T04:54:48;4.10;99.90
39847;DHT22;25517;52.422;10.782;2023-12-14T04:57:14;4.10;99.90
39847;DHT22;25517;52.422;10.782;2023-12-14T04:59:41;4.10;99.90
39847;DHT22;25517;52.422;10.782;2023-12-14T05:02:07;4.10;99.90
39847;DHT22;25517;52.422;10.782;2023-12-14T05:04:33;4.10;99.90
39847;DHT22;25517;52.422;10.782;2023-12-14T05:06:58;4.10;99.90
39847;DHT22;25517;52.422;10.782;2023-12-14T05:09:24;4.00;99.90
39847;DHT22;25517;52.422;10.782;2023-12-14T05:11:50;4.00;99.90
39847;DHT22;25517;52.422;10.782;2023-12-14T05:14:15;4.00;99.90
39847;DHT22;25517;52.422;10.782;2023-12-14T05:16:41;4.00;99.90
39847;DHT22;25517;52.422;10.782;2023-12-14T05:19:06;3.90;99.90
39847;DHT22;25517;52.422;10.782;2023-12-14T05:21:32;4.00;99.90
39847;DHT22;25517;52.422;10.782;2023-12-14T05:23:58;3.90;99.90
39847;DHT22;25517;52.422;10.782;2023-12-14T05:26:24;3.90;99.90
39847;DHT22;25517;52.422;10.782;2023-12-14T05:28:50;3.90;99.90
39847;DHT22;25517;52.422;10.782;2023-12-14T05:31:15;3.90;99.90
39847;DHT22;25517;52.422;10.782;2023-12-14T05:33:42;3.90;99.90
39847;DHT22;25517;52.422;10.782;2023-12-14T05:36:07;3.80;99.90
39847;DHT22;25517;52.422;10.782;2023-12-14T05:38:39;3.80;99.90
39847;DHT22;25517;52.422;10.782;2023-12-14T05:41:05;3.90;99.90
39847;DHT22;25517;52.422;10.782;2023-12-14T05:43:31;3.80;99.90
39847;DHT22;25517;52.422;10.782;2023-12-14T05:45:57;3.80;99.90
39847;DHT22;25517;52.422;10.782;2023-12-14T05:48:22;3.90;99.90
39847;DHT22;25517;52.422;10.782;2023-12-14T05:50:48;3.90;99.90
39847;DHT22;25517;52.422;10.782;2023-12-14T05:53:13;3.90;99.90
39847;DHT22;25517;52.422;10.782;2023-12-14T05:55:39;3.90;99.90
39847;DHT22;25517;52.422;10.782;2023-12-14T05:58:06;3.90;99.90
39847;DHT22;25517;52.422;10.782;2023-12-14T06:00:33;3.90;99.90
39847;DHT22;25517;52.422;10.782;2023-12-14T06:03:00;3.90;99.90
39847;DHT22;25517;52.422;10.782;2023-12-14T06:05:25;3.90;99.90
39847;DHT22;25517;52.422;10.782;2023-12-14T06:07:51;3.90;99.90
39847;DHT22;25517;52.422;10.782;2023-12-14T06:10:18;3.90;99.90
39847;DHT22;25517;52.422;10.782;2023-12-14T06:12:44;4.00;99.90
39847;DHT22;25517;52.422;10.782;2023-12-14T06:15:09;3.90;99.90
39847;DHT22;25517;52.422;10.782;2023-12-14T06:17:36;3.90;99.90
39847;DHT22;25517;52.422;10.782;2023-12-14T06:20:05;3.90;99.90
39847;DHT22;25517;52.422;10.782;2023-12-14T06:22:30;3.90;99.90
39847;DHT22;25517;52.422;10.782;2023-12-14T06:24:56;3.90;99.90
39847;DHT22;25517;52.422;10.782;2023-12-14T06:27:21;3.90;99.90
39847;DHT22;25517;52.422;10.782;2023-12-14T06:29:52;3.90;99.90
39847;DHT22;25517;52.422;10.782;2023-12-14T06:32:17;3.90;99.90
39847;DHT22;25517;52.422;10.782;2023-12-14T06:34:43;3.90;99.90
39847;DHT22;25517;52.422;10.782;2023-12-14T06:37:09;3.90;99.90
39847;DHT22;25517;52.422;10.782;2023-12-14T06:39:34;3.90;99.90
39847;DHT22;25517;52.422;10.782;2023-12-14T06:42:01;3.80;99.90
39847;DHT22;25517;52.422;10.782;2023-12-14T06:44:26;3.80;99.90
39847;DHT22;25517;52.422;10.782;2023-12-14T06:46:53;3.80;99.90
39847;DHT22;25517;52.422;10.782;2023-12-14T06:49:20;3.80;99.90
39847;DHT22;25517;52.422;10.782;2023-12-14T06:51:45;3.80;99.90
39847;DHT22;25517;52.422;10.782;2023-12-14T06:54:11;3.80;99.90
39847;DHT22;25517;52.422;10.782;2023-12-14T06:56:37;3.80;99.90
39847;DHT22;25517;52.422;10.782;2023-12-14T06:59:03;3.80;99.90
39847;DHT22;25517;52.422;10.782;2023-12-14T07:01:28;3.90;99.90
39847;DHT22;25517;52.422;10.782;2023-12-14T07:03:54;3.90;99.90
39847;DHT22;25517;52.422;10.782;2023-12-14T07:06:20;3.90;99.90
39847;DHT22;25517;52.422;10.782;2023-12-14T07:08:46;3.90;99.90
39847;DHT22;25517;52.422;10.782;2023-12-14T07:11:13;3.90;99.90
39847;DHT22;25517;52.422;10.782;2023-12-14T07:13:39;3.90;99.90
39847;DHT22;25517;52.422;10.782;2023-12-14T07:16:07;3.90;99.90
39847;DHT22;25517;52.422;10.782;2023-12-14T07:18:40;3.90;99.90
39847;DHT22;25517;52.422;10.782;2023-12-14T07:21:06;3.90;99.90
39847;DHT22;25517;52.422;10.782;2023-12-14T07:23:32;4.00;99.90
39847;DHT22;25517;52.422;10.782;2023-12-14T07:25:58;4.00;99.90
39847;DHT22;25517;52.422;10.782;2023-12-14T07:28:24;4.00;99.90
39847;DHT22;25517;52.422;10.782;2023-12-14T07:30:50;4.00;99.90
39847;DHT22;25517;52.422;10.782;2023-12-14T07:33:16;3.90;99.90
39847;DHT22;25517;52.422;10.782;2023-12-14T07:35:42;4.00;99.90
39847;DHT22;25517;52.422;10.782;2023-12-14T07:38:09;4.00;99.90
39847;DHT22;25517;52.422;10.782;2023-12-14T07:40:35;4.00;99.90
39847;DHT22;25517;52.422;10.782;2023-12-14T07:43:00;4.00;99.90
39847;DHT22;25517;52.422;10.782;2023-12-14T07:45:26;4.00;99.90
39847;DHT22;25517;52.422;10.782;2023-12-14T07:47:51;4.00;99.90
39847;DHT22;25517;52.422;10.782;2023-12-14T07:50:17;4.00;99.90
39847;DHT22;25517;52.422;10.782;2023-12-14T07:52:43;4.00;99.90
39847;DHT22;25517;52.422;10.782;2023-12-14T07:55:09;4.10;99.90
39847;DHT22;25517;52.422;10.782;2023-12-14T07:57:34;4.10;99.90
39847;DHT22;25517;52.422;10.782;2023-12-14T08:00:00;4.00;99.90
39847;DHT22;25517;52.422;10.782;2023-12-14T08:02:25;4.00;99.90
39847;DHT22;25517;52.422;10.782;2023-12-14T08:04:51;4.10;99.90
39847;DHT22;25517;52.422;10.782;2023-12-14T08:07:17;4.10;99.90
39847;DHT22;25517;52.422;10.782;2023-12-14T08:09:43;4.10;99.90
39847;DHT22;25517;52.422;10.782;2023-12-14T08:12:09;4.10;99.90
39847;DHT22;25517;52.422;10.782;2023-12-14T08:14:35;4.10;99.90
39847;DHT22;25517;52.422;10.782;2023-12-14T08:17:03;4.10;99.90
39847;DHT22;25517;52.422;10.782;2023-12-14T08:19:30;4.10;99.90
39847;DHT22;25517;52.422;10.782;2023-12-14T08:21:56;4.10;99.90
39847;DHT22;25517;52.422;10.782;2023-12-14T08:24:21;4.10;99.90
39847;DHT22;25517;52.422;10.782;2023-12-14T08:26:47;4.10;99.90
39847;DHT22;25517;52.422;10.782;2023-12-14T08:29:12;4.10;99.90
39847;DHT22;25517;52.422;10.782;2023-12-14T08:31:38;4.10;99.90
39847;DHT22;25517;52.422;10.782;2023-12-14T08:34:03;4.00;99.90
39847;DHT22;25517;52.422;10.782;2023-12-14T08:36:29;4.10;99.90
39847;DHT22;25517;52.422;10.782;2023-12-14T08:38:57;4.10;99.90
39847;DHT22;25517;52.422;10.782;2023-12-14T08:41:22;4.10;99.90
39847;DHT22;25517;52.422;10.782;2023-12-14T08:43:48;4.20;99.90
39847;DHT22;25517;52.422;10.782;2023-12-14T08:46:13;4.10;99.90
39847;DHT22;25517;52.422;10.782;2023-12-14T08:48:39;4.10;99.90
39847;DHT22;25517;52.422;10.782;2023-12-14T08:51:05;4.10;99.90
39847;DHT22;25517;52.422;10.782;2023-12-14T08:53:31;4.20;99.90
39847;DHT22;25517;52.422;10.782;2023-12-14T08:55:56;4.20;99.90
39847;DHT22;25517;52.422;10.782;2023-12-14T08:58:22;4.10;99.90
39847;DHT22;25517;52.422;10.782;2023-12-14T09:00:48;4.20;99.90
39847;DHT22;25517;52.422;10.782;2023-12-14T09:03:18;4.20;99.90
39847;DHT22;25517;52.422;10.782;2023-12-14T09:05:44;4.20;99.90
39847;DHT22;25517;52.422;10.782;2023-12-14T09:08:10;4.20;99.90
39847;DHT22;25517;52.422;10.782;2023-12-14T09:10:36;4.20;99.90
39847;DHT22;25517;52.422;10.782;2023-12-14T09:13:02;4.20;99.90
39847;DHT22;25517;52.422;10.782;2023-12-14T09:15:32;4.20;99.90
39847;DHT22;25517;52.422;10.782;2023-12-14T09:17:58;4.20;99.90
39847;DHT22;25517;52.422;10.782;2023-12-14T09:20:24;4.20;99.90
39847;DHT22;25517;52.422;10.782;2023-12-14T09:22:50;4.20;99.90
39847;DHT22;25517;52.422;10.782;2023-12-14T09:25:16;4.20;99.90
39847;DHT22;25517;52.422;10.782;2023-12-14T09:27:41;4.30;99.90
39847;DHT22;25517;52.422;10.782;2023-12-14T09:30:08;4.30;99.90
39847;DHT22;25517;52.422;10.782;2023-12-14T09:32:34;4.30;99.90
39847;DHT22;25517;52.422;10.782;2023-12-14T09:34:59;4.30;99.90
39847;DHT22;25517;52.422;10.782;2023-12-14T09:37:26;4.30;99.90
39847;DHT22;25517;52.422;10.782;2023-12-14T09:39:51;4.30;99.90
39847;DHT22;25517;52.422;10.782;2023-12-14T09:42:20;4.30;99.90
39847;DHT22;25517;52.422;10.782;2023-12-14T09:44:47;4.30;99.90
39847;DHT22;25517;52.422;10.782;2023-12-14T09:47:13;4.30;99.90
39847;DHT22;25517;52.422;10.782;2023-12-14T09:49:41;4.30;99.90
39847;DHT22;25517;52.422;10.782;2023-12-14T09:52:08;4.30;99.90
39847;DHT22;25517;52.422;10.782;2023-12-14T09:54:34;4.30;99.90
39847;DHT22;25517;52.422;10.782;2023-12-14T09:56:59;4.30;99.90
39847;DHT22;25517;52.422;10.782;2023-12-14T09:59:25;4.30;99.90
39847;DHT22;25517;52.422;10.782;2023-12-14T10:01:51;4.30;99.90
39847;DHT22;25517;52.422;10.782;2023-12-14T10:04:19;4.40;99.90
39847;DHT22;25517;52.422;10.782;2023-12-14T10:06:46;4.40;99.90
39847;DHT22;25517;52.422;10.782;2023-12-14T10:09:13;4.40;99.90
39847;DHT22;25517;52.422;10.782;2023-12-14T10:11:41;4.30;99.90
39847;DHT22;25517;52.422;10.782;2023-12-14T10:14:22;4.40;99.90
39847;DHT22;25517;52.422;10.782;2023-12-14T10:16:51;4.40;99.90
39847;DHT22;25517;52.422;10.782;2023-12-14T10:19:18;4.40;99.90
39847;DHT22;25517;52.422;10.782;2023-12-14T10:21:44;4.40;99.90
39847;DHT22;25517;52.422;10.782;2023-12-14T10:24:12;4.40;99.90
39847;DHT22;25517;52.422;10.782;2023-12-14T10:26:37;4.50;99.90
39847;DHT22;25517;52.422;10.782;2023-12-14T10:29:03;4.50;99.90
39847;DHT22;25517;52.422;10.782;2023-12-14T10:31:30;4.50;99.90
39847;DHT22;25517;52.422;10.782;2023-12-14T10:33:56;4.50;99.90
39847;DHT22;25517;52.422;10.782;2023-12-14T10:36:25;4.50;99.90
39847;DHT22;25517;52.422;10.782;2023-12-14T10:38:52;4.50;99.90
39847;DHT22;25517;52.422;10.782;2023-12-14T10:41:18;4.50;99.90
39847;DHT22;25517;52.422;10.782;2023-12-14T10:43:48;4.50;99.90
39847;DHT22;25517;52.422;10.782;2023-12-14T10:46:15;4.50;99.90
39847;DHT22;25517;52.422;10.782;2023-12-14T10:48:44;4.50;99.90
39847;DHT22;25517;52.422;10.782;2023-12-14T10:51:14;4.40;99.90
39847;DHT22;25517;52.422;10.782;2023-12-14T10:53:41;4.50;99.90
39847;DHT22;25517;52.422;10.782;2023-12-14T10:56:10;4.50;99.90
39847;DHT22;25517;52.422;10.782;2023-12-14T10:58:47;4.50;99.90
39847;DHT22;25517;52.422;10.782;2023-12-14T11:01:15;4.50;99.90
39847;DHT22;25517;52.422;10.782;2023-12-14T11:03:42;4.50;99.90
39847;DHT22;25517;52.422;10.782;2023-12-14T11:08:53;4.60;99.90
39847;DHT22;25517;52.422;10.782;2023-12-14T11:11:20;4.60;99.90
39847;DHT22;25517;52.422;10.782;2023-12-14T11:13:55;4.60;99.90
39847;DHT22;25517;52.422;10.782;2023-12-14T11:16:22;4.60;99.90
39847;DHT22;25517;52.422;10.782;2023-12-14T11:18:48;4.60;99.90
39847;DHT22;25517;52.422;10.782;2023-12-14T11:21:34;4.60;99.90
39847;DHT22;25517;52.422;10.782;2023-12-14T11:24:01;4.60;99.90
39847;DHT22;25517;52.422;10.782;2023-12-14T11:26:26;4.60;99.90
39847;DHT22;25517;52.422;10.782;2023-12-14T11:28:54;4.50;99.90
39847;DHT22;25517;52.422;10.782;2023-12-14T11:31:19;4.50;99.90
39847;DHT22;25517;52.422;10.782;2023-12-14T11:33:46;4.50;99.90
39847;DHT22;25517;52.422;10.782;2023-12-14T11:36:13;4.50;99.90
39847;DHT22;25517;52.422;10.782;2023-12-14T11:38:39;4.50;99.90
39847;DHT22;25517;52.422;10.782;2023-12-14T11:41:05;4.50;99.90
39847;DHT22;25517;52.422;10.782;2023-12-14T11:43:39;4.50;99.90
39847;DHT22;25517;52.422;10.782;2023-12-14T11:46:05;4.50;99.90
39847;DHT22;25517;52.422;10.782;2023-12-14T11:48:31;4.50;99.90
39847;DHT22;25517;52.422;10.782;2023-12-14T11:50:56;4.50;99.90
39847;DHT22;25517;52.422;10.782;2023-12-14T11:53:22;4.50;99.90
39847;DHT22;25517;52.422;10.782;2023-12-14T11:55:48;4.50;99.90
39847;DHT22;25517;52.422;10.782;2023-12-14T11:58:15;4.50;99.90
39847;DHT22;25517;52.422;10.782;2023-12-14T12:00:41;4.50;99.90
39847;DHT22;25517;52.422;10.782;2023-12-14T12:03:14;4.50;99.90
39847;DHT22;25517;52.422;10.782;2023-12-14T12:05:42;4.50;99.90
39847;DHT22;25517;52.422;10.782;2023-12-14T12:08:09;4.50;99.90
39847;DHT22;25517;52.422;10.782;2023-12-14T12:10:36;4.40;99.90
39847;DHT22;25517;52.422;10.782;2023-12-14T12:13:07;4.50;99.90
39847;DHT22;25517;52.422;10.782;2023-12-14T12:15:34;4.40;99.90
39847;DHT22;25517;52.422;10.782;2023-12-14T12:18:08;4.40;99.90
39847;DHT22;25517;52.422;10.782;2023-12-14T12:20:34;4.40;99.90
39847;DHT22;25517;52.422;10.782;2023-12-14T12:23:01;4.40;99.90
39847;DHT22;25517;52.422;10.782;2023-12-14T12:25:27;4.40;99.90
39847;DHT22;25517;52.422;10.782;2023-12-14T12:27:56;4.40;99.90
39847;DHT22;25517;52.422;10.782;2023-12-14T12:30:22;4.40;99.90
39847;DHT22;25517;52.422;10.782;2023-12-14T12:32:49;4.40;99.90
39847;DHT22;25517;52.422;10.782;2023-12-14T12:35:16;4.40;99.90
39847;DHT22;25517;52.422;10.782;2023-12-14T12:37:42;4.40;99.90
39847;DHT22;25517;52.422;10.782;2023-12-14T12:40:08;4.40;99.90
39847;DHT22;25517;52.422;10.782;2023-12-14T12:42:34;4.40;99.90
39847;DHT22;25517;52.422;10.782;2023-12-14T12:45:00;4.40;99.90
39847;DHT22;25517;52.422;10.782;2023-12-14T12:47:26;4.40;99.90
39847;DHT22;25517;52.422;10.782;2023-12-14T12:49:51;4.50;99.90
39847;DHT22;25517;52.422;10.782;2023-12-14T12:52:17;4.50;99.90
39847;DHT22;25517;52.422;10.782;2023-12-14T12:54:43;4.50;99.90
39847;DHT22;25517;52.422;10.782;2023-12-14T12:57:09;4.50;99.90
39847;DHT22;25517;52.422;10.782;2023-12-14T12:59:34;4.50;99.90
39847;DHT22;25517;52.422;10.782;2023-12-14T13:02:00;4.40;99.90
39847;DHT22;25517;52.422;10.782;2023-12-14T13:04:28;4.50;99.90
39847;DHT22;25517;52.422;10.782;2023-12-14T13:06:56;4.50;99.90
39847;DHT22;25517;52.422;10.782;2023-12-14T13:09:22;4.50;99.90
39847;DHT22;25517;52.422;10.782;2023-12-14T13:11:49;4.50;99.90
39847;DHT22;25517;52.422;10.782;2023-12-14T13:14:16;4.50;99.90
39847;DHT22;25517;52.422;10.782;2023-12-14T13:16:42;4.50;99.90
39847;DHT22;25517;52.422;10.782;2023-12-14T13:19:08;4.50;99.90
39847;DHT22;25517;52.422;10.782;2023-12-14T13:21:35;4.50;99.90
39847;DHT22;25517;52.422;10.782;2023-12-14T13:24:00;4.50;99.90
39847;DHT22;25517;52.422;10.782;2023-12-14T13:26:27;4.50;99.90
39847;DHT22;25517;52.422;10.782;2023-12-14T13:28:52;4.50;99.90
39847;DHT22;25517;52.422;10.782;2023-12-14T13:31:18;4.50;99.90
39847;DHT22;25517;52.422;10.782;2023-12-14T13:33:46;4.50;99.90
39847;DHT22;25517;52.422;10.782;2023-12-14T13:36:12;4.50;99.90
39847;DHT22;25517;52.422;10.782;2023-12-14T13:38:38;4.60;99.90
39847;DHT22;25517;52.422;10.782;2023-12-14T13:41:03;4.60;99.90
39847;DHT22;25517;52.422;10.782;2023-12-14T13:43:29;4.60;99.90
39847;DHT22;25517;52.422;10.782;2023-12-14T13:45:55;4.60;99.90
39847;DHT22;25517;52.422;10.782;2023-12-14T13:48:26;4.60;99.90
39847;DHT22;25517;52.422;10.782;2023-12-14T13:50:56;4.70;99.90
39847;DHT22;25517;52.422;10.782;2023-12-14T13:53:23;4.70;99.90
39847;DHT22;25517;52.422;10.782;2023-12-14T13:55:49;4.60;99.90
39847;DHT22;25517;52.422;10.782;2023-12-14T13:58:15;4.60;99.90
39847;DHT22;25517;52.422;10.782;2023-12-14T14:00:41;4.60;99.90
39847;DHT22;25517;52.422;10.782;2023-12-14T14:03:07;4.60;99.90
39847;DHT22;25517;52.422;10.782;2023-12-14T14:05:33;4.60;99.90
39847;DHT22;25517;52.422;10.782;2023-12-14T14:07:59;4.60;99.90
39847;DHT22;25517;52.422;10.782;2023-12-14T14:10:25;4.60;99.90
39847;DHT22;25517;52.422;10.782;2023-12-14T14:12:51;4.50;99.90
39847;DHT22;25517;52.422;10.782;2023-12-14T14:15:17;4.50;99.90
39847;DHT22;25517;52.422;10.782;2023-12-14T14:17:42;4.50;99.90
39847;DHT22;25517;52.422;10.782;2023-12-14T14:20:08;4.50;99.90
39847;DHT22;25517;52.422;10.782;2023-12-14T14:22:36;4.50;99.90
39847;DHT22;25517;52.422;10.782;2023-12-14T14:25:04;4.60;99.90
39847;DHT22;25517;52.422;10.782;2023-12-14T14:27:32;4.50;99.90
39847;DHT22;25517;52.422;10.782;2023-12-14T14:29:58;4.60;99.90
39847;DHT22;25517;52.422;10.782;2023-12-14T14:32:23;4.50;99.90
39847;DHT22;25517;52.422;10.782;2023-12-14T14:34:49;4.60;99.90
39847;DHT22;25517;52.422;10.782;2023-12-14T14:37:15;4.60;99.90
39847;DHT22;25517;52.422;10.782;2023-12-14T14:39:40;4.50;99.90
39847;DHT22;25517;52.422;10.782;2023-12-14T14:42:09;4.60;99.90
39847;DHT22;25517;52.422;10.782;2023-12-14T14:44:34;4.60;99.90
39847;DHT22;25517;52.422;10.782;2023-12-14T14:47:01;4.60;99.90
39847;DHT22;25517;52.422;10.782;2023-12-14T14:49:27;4.60;99.90
39847;DHT22;25517;52.422;10.782;2023-12-14T14:51:53;4.60;99.90
39847;DHT22;25517;52.422;10.782;2023-12-14T14:54:18;4.60;99.90
39847;DHT22;25517;52.422;10.782;2023-12-14T14:56:44;4.60;99.90
39847;DHT22;25517;52.422;10.782;2023-12-14T14:59:10;4.60;99.90
39847;DHT22;25517;52.422;10.782;2023-12-14T15:01:37;4.60;99.90
39847;DHT22;25517;52.422;10.782;2023-12-14T15:04:02;4.60;99.90
39847;DHT22;25517;52.422;10.782;2023-12-14T15:06:28;4.60;99.90
39847;DHT22;25517;52.422;10.782;2023-12-14T15:08:54;4.60;99.90
39847;DHT22;25517;52.422;10.782;2023-12-14T15:11:19;4.60;99.90
39847;DHT22;25517;52.422;10.782;2023-12-14T15:13:46;4.60;99.90
39847;DHT22;25517;52.422;10.782;2023-12-14T15:16:11;4.60;99.90
39847;DHT22;25517;52.422;10.782;2023-12-14T15:18:38;4.60;99.90
39847;DHT22;25517;52.422;10.782;2023-12-14T15:21:12;4.60;99.90
39847;DHT22;25517;52.422;10.782;2023-12-14T15:23:38;4.60;99.90
39847;DHT22;25517;52.422;10.782;2023-12-14T15:26:04;4.50;99.90